createdAt,value
2019-04-26T00:03:53.121Z,17.90
2019-04-26T00:13:00.216Z,17.10
2019-04-26T00:31:21.395Z,17.00
2019-04-26T00:35:57.692Z,17.20
2019-04-26T00:40:28.480Z,17.80
2019-04-26T00:45:00.605Z,16.90
2019-04-26T00:49:43.458Z,16.90
2019-04-26T00:54:08.023Z,16.50
2019-04-26T00:58:40.509Z,16.40
2019-04-26T01:03:12.480Z,16.20
2019-04-26T01:07:44.582Z,16.30
2019-04-26T01:21:39.701Z,17.10
2019-04-26T01:30:48.532Z,16.70
2019-04-26T01:53:47.552Z,15.80
2019-04-26T02:30:33.282Z,15.30
2019-04-26T02:35:04.384Z,15.80
2019-04-26T02:44:08.946Z,15.70
2019-04-26T02:49:21.957Z,15.70
2019-04-26T02:59:00.195Z,15.40
2019-04-26T03:12:57.888Z,15.20
2019-04-26T03:27:08.441Z,14.70
2019-04-26T04:00:23.991Z,15.50
2019-04-26T04:27:58.309Z,17.60
2019-04-26T04:41:56.717Z,18.30
2019-04-26T04:46:41.762Z,18.10
2019-04-26T04:51:27.336Z,18.00
2019-04-26T05:06:07.204Z,19.40
2019-04-26T05:15:37.582Z,18.50
2019-04-26T05:34:48.953Z,19.20
2019-04-26T05:39:47.799Z,18.80
2019-04-26T06:13:58.144Z,19.70
2019-04-26T06:28:25.640Z,20.70
2019-04-26T06:33:12.671Z,20.80
2019-04-26T06:37:55.360Z,20.80
2019-04-26T06:56:36.104Z,23.20
2019-04-26T07:06:10.286Z,23.60
2019-04-26T07:10:53.535Z,22.70
2019-04-26T07:20:41.083Z,23.20
2019-04-26T07:25:51.322Z,24.10
2019-04-26T07:30:33.127Z,24.60
2019-04-26T07:44:45.720Z,24.20
2019-04-26T07:49:57.040Z,24.90
2019-04-26T07:54:38.557Z,25.20
2019-04-26T07:59:37.091Z,24.80
2019-04-26T08:13:21.152Z,25.40
2019-04-26T08:22:45.576Z,25.60
2019-04-26T08:27:39.661Z,25.80
2019-04-26T08:32:16.181Z,25.10
2019-04-26T08:41:29.303Z,25.80
2019-04-26T08:55:30.252Z,26.80
2019-04-26T09:00:07.060Z,26.80
2019-04-26T09:04:54.849Z,26.90
2019-04-26T09:09:32.298Z,26.60
2019-04-26T09:18:43.722Z,26.90
2019-04-26T09:23:39.334Z,27.10
2019-04-26T09:28:05.592Z,27.70
2019-04-26T09:32:46.058Z,27.90
2019-04-26T09:37:19.676Z,27.60
2019-04-26T09:41:51.394Z,27.60
2019-04-26T09:46:25.710Z,27.60
2019-04-26T09:50:58.219Z,28.00
2019-04-26T09:55:35.698Z,28.40
2019-04-26T10:04:37.212Z,28.60
2019-04-26T10:09:11.574Z,28.40
2019-04-26T10:14:02.974Z,28.40
2019-04-26T10:18:36.933Z,28.20
2019-04-26T10:23:09.065Z,28.60
2019-04-26T10:27:42.528Z,28.30
2019-04-26T10:32:14.029Z,28.40
2019-04-26T10:36:45.496Z,28.40
2019-04-26T10:41:17.031Z,28.80
2019-04-26T10:45:53.657Z,28.40
2019-04-26T10:50:23.729Z,28.20
2019-04-26T10:55:03.197Z,28.60
2019-04-26T10:59:46.100Z,28.70
2019-04-26T11:04:28.696Z,28.80
2019-04-26T11:09:00.566Z,28.50
2019-04-26T11:13:34.966Z,28.50
2019-04-26T11:18:05.296Z,28.60
2019-04-26T11:22:37.630Z,29.40
2019-04-26T11:27:11.353Z,29.20
2019-04-26T11:31:43.505Z,29.40
2019-04-26T11:36:16.310Z,28.90
2019-04-26T11:40:58.454Z,28.80
2019-04-26T11:45:24.789Z,29.20
2019-04-26T11:49:58.426Z,29.70
2019-04-26T11:54:31.200Z,29.70
2019-04-26T11:59:03.240Z,29.30
2019-04-26T12:03:35.859Z,29.70
2019-04-26T12:08:17.420Z,29.50
2019-04-26T12:12:51.807Z,29.30
2019-04-26T12:17:27.126Z,29.40
2019-04-26T12:22:17.991Z,28.90
2019-04-26T12:35:56.819Z,29.40
2019-04-26T12:40:25.981Z,29.70
2019-04-26T12:45:06.404Z,29.80
2019-04-26T12:49:38.167Z,29.90
2019-04-26T12:54:09.967Z,29.70
2019-04-26T12:58:45.616Z,29.90
2019-04-26T13:03:20.607Z,29.40
2019-04-26T13:07:52.605Z,29.60
2019-04-26T13:21:52.557Z,28.90
2019-04-26T13:26:25.521Z,29.70
2019-04-26T13:30:57.044Z,29.60
2019-04-26T13:35:28.793Z,29.60
2019-04-26T13:40:01.355Z,29.70
2019-04-26T13:44:51.558Z,28.90
2019-04-26T13:49:41.669Z,29.40
2019-04-26T13:54:16.599Z,28.80
2019-04-26T14:03:18.667Z,29.20
2019-04-26T14:12:21.291Z,28.60
2019-04-26T14:16:58.650Z,28.40
2019-04-26T14:26:11.280Z,27.80
2019-04-26T14:30:43.271Z,28.40
2019-04-26T14:35:15.747Z,28.00
2019-04-26T14:39:51.238Z,28.30
2019-04-26T14:53:27.404Z,27.90
2019-04-26T14:57:58.152Z,28.40
2019-04-26T15:02:49.872Z,28.60
2019-04-26T15:07:22.262Z,28.10
2019-04-26T15:11:59.655Z,28.20
2019-04-26T15:16:46.856Z,28.70
2019-04-26T15:21:19.458Z,28.30
2019-04-26T15:25:52.696Z,28.80
2019-04-26T15:30:26.725Z,28.30
2019-04-26T15:34:58.787Z,28.20
2019-04-26T15:39:33.024Z,28.10
2019-04-26T15:44:11.936Z,28.10
2019-04-26T15:57:53.153Z,28.00
2019-04-26T16:02:26.369Z,28.20
2019-04-26T16:06:58.706Z,28.30
2019-04-26T16:11:33.550Z,28.40
2019-04-26T16:16:06.006Z,28.30
2019-04-26T16:20:42.272Z,27.80
2019-04-26T16:25:15.453Z,28.10
2019-04-26T16:30:28.410Z,28.40
2019-04-26T16:35:02.904Z,28.10
2019-04-26T16:39:38.951Z,28.20
2019-04-26T16:48:42.604Z,28.20
2019-04-26T16:53:36.255Z,28.30
2019-04-26T16:57:54.772Z,28.10
2019-04-26T17:02:26.141Z,27.90
2019-04-26T17:07:01.706Z,28.20
2019-04-26T17:20:36.502Z,26.00
2019-04-26T17:25:12.548Z,26.30
2019-04-26T17:34:40.457Z,25.30
2019-04-26T17:39:16.815Z,25.20
2019-04-26T17:43:48.265Z,25.10
2019-04-26T17:57:32.124Z,23.90
2019-04-26T18:02:00.855Z,24.50
2019-04-26T18:06:29.903Z,24.20
2019-04-26T18:11:02.312Z,23.90
2019-04-26T18:15:35.578Z,24.20
2019-04-26T18:20:26.543Z,23.40
2019-04-26T18:29:30.458Z,23.30
2019-04-26T18:38:35.116Z,22.50
2019-04-26T18:56:48.339Z,22.40
2019-04-26T19:20:08.520Z,21.90
2019-04-26T19:33:51.710Z,22.20
2019-04-26T19:38:22.892Z,21.90
2019-04-26T19:43:03.179Z,21.60
2019-04-26T19:57:11.140Z,21.50
2019-04-26T20:01:46.115Z,21.70
2019-04-26T20:06:18.754Z,21.90
2019-04-26T20:19:56.122Z,20.70
2019-04-26T20:24:28.582Z,21.10
2019-04-26T20:33:35.035Z,20.80
2019-04-26T20:56:09.830Z,20.90
2019-04-26T21:05:15.863Z,20.80
2019-04-26T21:09:47.539Z,20.20
2019-04-26T21:14:21.343Z,20.00
2019-04-26T21:18:55.632Z,20.80
2019-04-26T21:23:27.721Z,20.60
2019-04-26T21:51:14.546Z,20.00
2019-04-26T21:55:44.060Z,20.00
2019-04-26T22:00:16.378Z,20.40
2019-04-26T22:04:50.894Z,19.40
2019-04-26T22:09:36.830Z,18.90
2019-04-26T22:18:57.722Z,19.30
2019-04-26T22:46:53.871Z,18.90
2019-04-26T22:51:33.636Z,18.90
2019-04-26T23:05:05.833Z,18.60
2019-04-26T23:09:38.955Z,18.30
2019-04-26T23:14:18.828Z,18.90
2019-04-26T23:23:42.767Z,18.70
2019-04-26T23:32:48.558Z,18.20
